Terminal Aerodrome Forecast
Issued by NWS

Home | Current Version | Previous Version | Text Only | Print | Product List | Glossary On
Versions: 1 2 3 4 5 6 7 8 9 10 11 12 13 14 15 16 17 18
000
FTUS43 KUNR 072353
TAFGCC
TAF
KGCC 072353Z 0800/0824 18010KT P6SM BKN080
      TEMPO 0800/0803 P6SM -TSRA BKN040CB
     FM081000 VRB06KT P6SM SCT020 OVC060
     FM081800 04010KT P6SM -TSRA BKN040CB=

USA.gov is the U.S. government's official web portal to all federal, state and local government web resources and services.